Time;durP1;ratioP1;P1;durP2;ratioP2;P2;SDS_P1;SDS_P2;PMS_P1;PMS_P2;Temp;Humidity;BMP_temperature;BMP_pressure;BME280_temperature;BME280_humidity;BME280_pressure;Samples;Min_cycle;Max_cycle;Signal;HPM_P1;HPM_P2
2022/02/10 00:19:06;;;;;;;16.45;10.10;;;;;;;7.35;95.12;101029.03;1627785;88;27479;-78
2022/02/10 00:21:26;;;;;;;16.62;11.50;;;;;;;7.35;95.03;101032.55;1627716;88;25843;-78
2022/02/10 00:34:23;;;;;;;15.35;10.93;;;;;;;7.33;95.30;101035.02;1643360;86;26016;-79
2022/02/10 00:36:56;;;;;;;15.75;11.38;;;;;;;7.33;95.30;101037.20;1643843;86;25825;-78
2022/02/10 00:41:46;;;;;;;14.55;10.20;;;;;;;7.34;95.45;101033.52;1650312;86;26242;-79
2022/02/10 00:44:12;;;;;;;16.65;11.40;;;;;;;7.34;95.42;101031.34;1643080;87;28336;-78
2022/02/10 00:46:39;;;;;;;17.00;11.78;;;;;;;7.34;95.41;101029.52;1643357;87;26431;-79
2022/02/10 00:49:07;;;;;;;15.93;10.55;;;;;;;7.34;95.47;101030.86;1643391;86;26595;-79
2022/02/10 00:51:34;;;;;;;15.58;11.88;;;;;;;7.33;95.48;101028.36;1643605;86;25827;-79
2022/02/10 00:54:01;;;;;;;13.98;10.03;;;;;;;7.34;95.56;101032.67;1643708;87;25902;-79
2022/02/10 00:56:27;;;;;;;18.30;10.20;;;;;;;7.33;95.71;101029.69;1643367;86;27525;-78
2022/02/10 00:59:09;;;;;;;19.17;11.73;;;;;;;7.32;95.70;101029.34;1643185;87;26026;-79
2022/02/10 01:07:03;;;;;;;16.55;11.33;;;;;;;7.33;95.83;101031.02;1643270;87;25901;-78
2022/02/10 01:30:59;;;;;;;20.10;13.68;;;;;;;7.26;96.24;101029.47;1640300;86;25915;-78
2022/02/10 01:33:26;;;;;;;22.25;13.00;;;;;;;7.26;96.54;101032.63;1643133;86;26125;-78
2022/02/10 01:35:52;;;;;;;17.98;13.05;;;;;;;7.25;96.51;101036.30;1643590;87;28352;-79
2022/02/10 01:38:19;;;;;;;17.30;12.65;;;;;;;7.24;96.50;101030.13;1643157;87;25822;-78
2022/02/10 02:05:40;;;;;;;18.50;12.37;;;;;;;7.20;96.96;101038.09;1627565;88;25784;-79
2022/02/10 02:08:06;;;;;;;23.00;14.40;;;;;;;7.21;96.93;101041.56;1627269;88;25886;-78
2022/02/10 02:10:32;;;;;;;18.87;12.18;;;;;;;7.23;96.95;101040.95;1627732;88;25854;-79
2022/02/10 02:13:01;;;;;;;18.77;12.53;;;;;;;7.25;96.94;101041.11;1627446;88;25794;-79
2022/02/10 02:15:27;;;;;;;19.87;12.90;;;;;;;7.25;96.93;101033.63;1627655;87;27695;-79
2022/02/10 02:17:54;;;;;;;17.85;12.73;;;;;;;7.26;97.01;101030.80;1627535;87;25915;-80
2022/02/10 02:20:20;;;;;;;17.75;12.63;;;;;;;7.27;96.99;101034.31;1627571;88;25807;-78
2022/02/10 02:22:46;;;;;;;21.17;13.38;;;;;;;7.26;97.00;101033.47;1627577;87;26546;-78
2022/02/10 02:25:13;;;;;;;21.07;12.70;;;;;;;7.27;97.04;101033.79;1627640;87;25332;-79
2022/02/10 02:27:50;;;;;;;16.32;11.73;;;;;;;7.29;97.04;101034.47;1627112;87;28291;-78
2022/02/10 02:30:29;;;;;;;18.07;12.80;;;;;;;7.29;97.26;101031.80;1634266;87;26064;-78
2022/02/10 02:35:49;;;;;;;17.25;12.63;;;;;;;7.27;97.30;101024.98;1642549;86;26591;-79
2022/02/10 02:38:33;;;;;;;16.82;12.10;;;;;;;7.25;97.43;101028.30;1643476;86;26511;-78
2022/02/10 03:04:06;;;;;;;24.30;14.05;;;;;;;7.24;97.52;101028.79;1643751;86;28440;-79
2022/02/10 03:05:08;;;;;;;22.35;14.53;;;;;;;7.21;97.96;101021.09;1627858;88;26504;-77
2022/02/10 03:07:36;;;;;;;18.98;14.13;;;;;;;7.20;97.93;101015.44;1627481;88;28515;-79
2022/02/10 03:12:38;;;;;;;18.23;12.53;;;;;;;7.21;97.86;101013.10;1590841;90;25874;-78
2022/02/10 03:15:10;;;;;;;22.25;14.20;;;;;;;7.23;97.84;101023.11;1591119;90;25835;-79
2022/02/10 03:17:45;;;;;;;18.40;13.60;;;;;;;7.25;97.81;101022.97;1590768;90;25870;-78
2022/02/10 04:04:25;;;;;;;20.05;14.35;;;;;;;7.17;98.86;100998.42;1590731;90;26502;-78
2022/02/10 04:06:47;;;;;;;21.33;13.65;;;;;;;7.16;98.98;100999.43;1589535;90;25845;-78
2022/02/10 04:09:19;;;;;;;;;;;;;;;7.18;98.82;101004.11;1589573;90;25886;-78
2022/02/10 04:16:33;;;;;;;21.30;15.23;;;;;;;7.19;98.80;101006.25;1591232;90;25799;-79
2022/02/10 04:26:42;;;;;;;23.40;14.98;;;;;;;7.22;98.58;101025.94;1589637;88;28518;-79
2022/02/10 04:29:25;;;;;;;22.00;14.80;;;;;;;7.22;98.48;101017.94;1589658;90;26030;-79
2022/02/10 04:58:41;;;;;;;28.25;14.85;;;;;;;7.27;98.03;101035.64;1590908;90;25819;-79
2022/02/10 05:06:43;;;;;;;19.37;13.48;;;;;;;7.30;98.05;101031.32;1590994;90;28288;-79
2022/02/10 05:35:25;;;;;;;22.22;13.53;;;;;;;7.32;97.86;101027.52;1637585;86;25870;-79
2022/02/10 05:37:48;;;;;;;25.02;16.25;;;;;;;7.32;97.81;101024.84;1626191;86;25956;-78
2022/02/10 05:40:18;;;;;;;21.87;14.25;;;;;;;7.32;97.74;101018.19;1620042;86;25919;-79
2022/02/10 05:43:17;;;;;;;22.55;15.05;;;;;;;7.35;97.76;101017.05;1612237;86;26023;-78
2022/02/10 05:45:29;;;;;;;;;;;;;;;7.34;97.73;101017.53;1635829;86;26912;-78
2022/02/10 05:55:31;;;;;;;;;;;;;;;7.36;97.65;101026.70;1600621;86;25853;-79
2022/02/10 05:57:56;;;;;;;;;;;;;;;7.36;97.70;101021.36;1621090;88;27523;-80
2022/02/10 06:52:01;;;;;;;26.87;16.55;;;;;;;7.36;98.09;100994.72;1621127;87;28068;-79
2022/02/10 06:57:38;;;;;;;25.55;15.40;;;;;;;7.37;98.14;100996.41;1621476;86;25884;-77
2022/02/10 07:05:24;;;;;;;26.97;15.53;;;;;;;7.34;98.25;100996.70;1628069;86;28377;-79
2022/02/10 07:07:57;;;;;;;25.80;15.93;;;;;;;7.35;98.21;101003.72;1622301;87;26473;-79
2022/02/10 08:27:12;;;;;;;28.17;17.32;;;;;;;7.44;100.00;101014.27;1623438;86;27556;-79
2022/02/10 08:49:37;;;;;;;26.45;18.00;;;;;;;7.45;100.00;101017.28;1620949;86;25970;-78
2022/02/10 08:54:01;;;;;;;26.80;18.12;;;;;;;7.59;100.00;100998.03;1625537;86;27544;-79
2022/02/10 09:23:43;;;;;;;29.60;18.48;;;;;;;8.19;99.43;100964.65;1771576;80;25779;-79
2022/02/10 09:26:30;;;;;;;23.38;15.72;;;;;;;8.18;99.36;100967.80;1745283;80;26476;-79
2022/02/10 09:57:29;;;;;;;27.05;17.92;;;;;;;8.39;98.21;100954.88;1740340;81;25844;-79
2022/02/10 10:02:06;;;;;;;25.05;16.77;;;;;;;8.41;98.56;100946.70;1734217;80;27466;-81
2022/02/10 10:04:38;;;;;;;26.85;17.20;;;;;;;8.45;98.24;100944.03;1746297;81;25884;-82
2022/02/10 10:07:28;;;;;;;26.87;18.10;;;;;;;8.44;98.12;100934.37;1743101;81;25793;-82
2022/02/10 10:10:05;;;;;;;22.50;15.50;;;;;;;8.41;98.12;100930.68;1737913;82;25748;-79
2022/02/10 10:26:39;;;;;;;24.55;15.72;;;;;;;8.47;97.33;100919.34;1631092;81;25609;-79
2022/02/10 10:51:08;;;;;;;19.92;15.08;;;;;;;8.50;95.36;100893.16;1770182;80;26377;-77
2022/02/10 10:56:08;;;;;;;19.05;13.18;;;;;;;8.60;95.43;100886.31;1754795;81;27411;-77
2022/02/10 10:58:35;;;;;;;16.65;11.63;;;;;;;8.66;95.59;100885.63;1753713;80;25738;-78
2022/02/10 11:03:41;;;;;;;18.95;11.63;;;;;;;8.68;95.47;100876.98;1754026;81;25754;-76
2022/02/10 11:07:15;;;;;;;19.12;13.03;;;;;;;8.69;94.75;100873.78;1755834;81;25846;-77
2022/02/10 11:36:20;;;;;;;18.67;13.13;;;;;;;9.14;94.56;100838.83;1727838;81;26498;-78
2022/02/10 12:34:53;;;;;;;12.85;10.15;;;;;;;9.43;89.68;100748.64;1688617;84;27556;-77
2022/02/10 13:02:54;;;;;;;11.78;8.90;;;;;;;9.41;88.34;100739.96;1675325;83;25862;-78
2022/02/10 13:26:53;;;;;;;8.33;5.03;;;;;;;9.05;89.01;100684.03;1670916;85;25570;-77
2022/02/10 13:49:33;;;;;;;7.55;4.95;;;;;;;9.13;88.83;100662.10;1689879;84;26584;-78
2022/02/10 14:16:01;;;;;;;12.18;7.30;;;;;;;9.11;88.54;100627.23;1725997;81;26027;-77
2022/02/10 14:20:55;;;;;;;14.87;8.68;;;;;;;9.10;88.79;100612.20;1668190;83;26660;-77
2022/02/10 14:25:37;;;;;;;15.30;8.85;;;;;;;9.12;88.95;100604.84;1710136;83;28194;-77
2022/02/10 14:25:45;;;;;;;16.05;9.33;;;;;;;9.13;88.92;100602.51;1705388;83;25919;-77
2022/02/10 14:28:09;;;;;;;12.98;7.80;;;;;;;9.13;88.97;100601.17;1684451;83;25841;-77
2022/02/10 14:30:35;;;;;;;11.03;7.25;;;;;;;9.15;89.05;100587.94;1695798;84;25837;-77
2022/02/10 14:33:02;;;;;;;10.82;7.50;;;;;;;9.17;89.01;100598.47;1686884;84;26512;-78
2022/02/10 14:35:38;;;;;;;11.63;7.60;;;;;;;9.18;89.03;100594.77;1697509;84;27543;-78
2022/02/10 14:40:59;;;;;;;15.00;8.53;;;;;;;9.19;89.08;100595.95;1718293;83;25958;-77
2022/02/10 14:43:27;;;;;;;12.37;8.38;;;;;;;9.18;88.92;100599.62;1692325;84;26444;-77
2022/02/10 15:16:30;;;;;;;21.70;13.38;;;;;;;9.11;89.17;100547.08;1702945;83;27529;-77
2022/02/10 15:21:24;;;;;;;17.15;11.95;;;;;;;9.07;88.87;100547.08;1682502;84;25896;-77
2022/02/10 15:29:33;;;;;;;18.90;11.05;;;;;;;8.97;88.44;100539.31;1692739;80;27467;-77
2022/02/10 15:50:41;;;;;;;;;;;;;;;8.76;87.65;100508.41;1688440;84;26119;-77
2022/02/10 15:53:04;;;;;;;15.63;9.88;;;;;;;8.71;87.18;100501.42;1684409;84;25789;-77
2022/02/10 15:55:31;;;;;;;16.80;9.73;;;;;;;8.67;87.00;100506.80;1688092;84;27485;-76
2022/02/10 16:11:55;;;;;;;14.07;9.18;;;;;;;8.64;86.15;100505.00;1675160;84;25908;-77
2022/02/10 16:18:51;;;;;;;17.45;11.25;;;;;;;8.61;85.83;100495.50;1685743;83;25851;-77
2022/02/10 16:21:37;;;;;;;20.23;11.38;;;;;;;8.58;85.73;100487.83;1688538;83;27549;-77
2022/02/10 16:24:13;;;;;;;21.30;13.30;;;;;;;8.58;85.85;100491.83;1673275;84;25906;-77
2022/02/10 16:26:38;;;;;;;26.45;14.78;;;;;;;8.47;85.92;100467.70;1677851;84;26545;-77
2022/02/10 16:28:54;;;;;;;24.77;14.53;;;;;;;8.58;85.94;100487.83;1669119;83;26267;-77
2022/02/10 16:31:23;;;;;;;27.05;15.25;;;;;;;8.59;85.84;100484.66;1677538;84;25838;-77
2022/02/10 16:33:52;;;;;;;21.30;13.72;;;;;;;8.57;85.85;100479.50;1674533;83;27466;-77
2022/02/10 16:36:17;;;;;;;21.97;14.15;;;;;;;8.56;85.72;100471.16;1659337;85;25754;-77
2022/02/10 16:38:45;;;;;;;21.77;13.68;;;;;;;8.56;85.87;100473.83;1671682;84;25560;-77
2022/02/10 16:41:14;;;;;;;20.08;12.70;;;;;;;8.55;85.80;100474.32;1679337;83;25963;-77
2022/02/10 16:43:42;;;;;;;21.40;12.47;;;;;;;8.56;85.80;100473.83;1658044;85;25955;-77
2022/02/10 16:46:10;;;;;;;24.82;12.73;;;;;;;8.54;85.87;100471.34;1677950;84;27465;-77
2022/02/10 16:48:38;;;;;;;21.68;12.88;;;;;;;8.54;86.00;100461.16;1687559;84;25919;-77
2022/02/10 16:51:09;;;;;;;23.62;14.70;;;;;;;8.55;85.82;100460.16;1689202;83;25893;-77
2022/02/10 16:53:46;;;;;;;21.00;13.48;;;;;;;8.53;85.90;100460.32;1692476;83;26026;-77
2022/02/10 16:56:19;;;;;;;26.97;15.35;;;;;;;8.51;85.82;100455.66;1676659;84;25912;-77
2022/02/10 16:58:43;;;;;;;20.10;13.18;;;;;;;8.50;85.96;100449.17;1675187;84;28491;-77
2022/02/10 17:03:56;;;;;;;20.52;13.55;;;;;;;8.47;85.99;100450.36;1697369;83;26013;-77
2022/02/10 17:15:02;;;;;;;30.90;17.87;;;;;;;8.43;85.99;100437.04;1690743;84;26008;-77
2022/02/10 17:17:27;;;;;;;27.37;16.77;;;;;;;8.41;86.00;100429.72;1684411;84;25777;-77
2022/02/10 17:25:21;;;;;;;29.23;16.70;;;;;;;8.36;85.74;100413.39;1689023;82;27630;-77
2022/02/10 17:27:47;;;;;;;26.68;17.15;;;;;;;8.35;85.80;100414.91;1683524;84;25926;-77
2022/02/10 17:33:10;;;;;;;26.17;16.32;;;;;;;8.32;85.93;100400.08;1690859;84;26358;-78
2022/02/10 17:54:41;;;;;;;24.27;14.68;;;;;;;8.26;86.05;100382.61;1664020;84;25823;-77
2022/02/10 17:57:08;;;;;;;23.73;14.95;;;;;;;8.24;86.09;100383.25;1663140;84;25774;-77
2022/02/10 17:59:34;;;;;;;26.65;15.70;;;;;;;8.24;86.23;100375.25;1683029;84;25878;-77
2022/02/10 18:02:02;;;;;;;22.62;14.58;;;;;;;8.23;86.18;100368.27;1671231;84;25851;-78
2022/02/10 18:04:28;;;;;;;25.95;14.03;;;;;;;8.24;85.90;100362.75;1655537;84;27633;-77
2022/02/10 18:06:56;;;;;;;26.33;14.95;;;;;;;8.22;85.83;100364.77;1680069;84;25941;-77
2022/02/10 18:15:11;;;;;;;28.32;15.13;;;;;;;8.24;85.92;100357.91;1683723;84;25925;-77
2022/02/10 18:17:35;;;;;;;23.98;13.68;;;;;;;8.23;85.88;100349.06;1688423;84;27477;-77
2022/02/10 18:20:14;;;;;;;21.55;13.50;;;;;;;8.24;85.79;100341.90;1680272;84;26572;-77
2022/02/10 18:28:16;;;;;;;;;;;;;;;8.24;85.74;100345.91;1660037;84;26506;-78
2022/02/10 18:30:49;;;;;;;23.92;13.55;;;;;;;8.25;85.77;100346.24;1680070;83;27649;-78
2022/02/10 19:04:21;;;;;;;21.10;11.55;;;;;;;8.34;84.74;100340.68;1680961;83;25839;-77
2022/02/10 19:05:58;;;;;;;20.95;12.82;;;;;;;8.35;84.12;100341.02;1679893;84;25874;-76
2022/02/10 19:08:26;;;;;;;24.77;13.20;;;;;;;8.36;83.83;100341.33;1683452;84;25834;-77
2022/02/10 19:10:57;;;;;;;21.95;13.65;;;;;;;8.38;84.46;100351.84;1680619;84;28366;-76
2022/02/10 19:13:19;;;;;;;29.63;15.45;;;;;;;8.40;84.39;100355.17;1684060;84;26646;-76
2022/02/10 19:15:46;;;;;;;20.97;12.10;;;;;;;8.43;84.41;100354.80;1683699;84;25837;-77
2022/02/10 19:18:12;;;;;;;20.27;12.18;;;;;;;8.45;83.34;100358.95;1683874;84;25771;-77
2022/02/10 19:20:39;;;;;;;20.20;11.22;;;;;;;8.52;83.45;100369.75;1666238;85;25856;-77
2022/02/10 19:23:07;;;;;;;19.60;11.08;;;;;;;8.59;83.74;100377.87;1663306;85;27490;-77
2022/02/10 19:25:36;;;;;;;22.62;13.48;;;;;;;8.64;83.71;100373.64;1661167;85;25730;-76
2022/02/10 19:28:06;;;;;;;19.73;11.57;;;;;;;8.69;83.56;100375.28;1658454;84;26265;-77
2022/02/10 19:30:36;;;;;;;21.55;11.95;;;;;;;8.73;83.51;100389.92;1667949;84;25780;-77
2022/02/10 19:33:03;;;;;;;24.70;13.13;;;;;;;8.76;83.53;100389.58;1664206;85;25756;-76
2022/02/10 19:35:33;;;;;;;20.82;12.73;;;;;;;8.78;83.64;100388.89;1658638;85;27489;-76
2022/02/10 19:38:03;;;;;;;22.90;13.10;;;;;;;8.81;83.55;100398.39;1669194;85;25869;-76
2022/02/10 19:40:38;;;;;;;22.32;13.65;;;;;;;8.81;84.00;100401.86;1662029;85;25786;-77
2022/02/10 19:43:04;;;;;;;30.77;16.37;;;;;;;8.81;84.00;100399.72;1663346;85;25960;-79
2022/02/10 19:45:30;;;;;;;22.95;13.43;;;;;;;8.80;84.12;100407.39;1670204;84;26618;-77
2022/02/10 19:47:56;;;;;;;21.07;13.00;;;;;;;8.76;84.37;100398.92;1680420;84;27433;-76
2022/02/10 19:50:28;;;;;;;18.55;12.18;;;;;;;8.75;84.36;100401.25;1678182;84;25756;-77
2022/02/10 19:52:59;;;;;;;16.93;11.43;;;;;;;8.74;84.19;100410.29;1701211;83;25748;-76
2022/02/10 19:55:24;;;;;;;18.98;11.03;;;;;;;8.75;84.28;100417.77;1696987;83;25831;-77
2022/02/10 19:57:58;;;;;;;19.85;12.18;;;;;;;8.73;84.47;100415.79;1700985;83;25883;-77
2022/02/10 20:00:30;;;;;;;19.65;12.30;;;;;;;8.73;84.65;100421.13;1661508;84;27466;-76
2022/02/10 20:02:52;;;;;;;16.25;10.68;;;;;;;8.71;84.80;100433.83;1664913;85;25797;-77
2022/02/10 20:05:25;;;;;;;20.05;11.53;;;;;;;8.68;84.27;100424.86;1697257;83;26711;-76
2022/02/10 20:07:51;;;;;;;16.97;10.65;;;;;;;8.64;84.82;100439.58;1696953;83;25841;-76
2022/02/10 20:10:15;;;;;;;17.32;11.25;;;;;;;8.62;85.01;100437.59;1697495;83;25972;-76
2022/02/10 20:12:42;;;;;;;18.25;11.50;;;;;;;8.55;85.11;100428.94;1663840;84;28177;-77
2022/02/10 20:15:12;;;;;;;18.55;11.73;;;;;;;8.52;85.44;100436.48;1698409;83;26442;-77
2022/02/10 20:17:40;;;;;;;17.25;12.10;;;;;;;8.50;85.66;100438.50;1685199;83;25811;-76
2022/02/10 20:20:08;;;;;;;17.05;11.65;;;;;;;8.49;85.81;100438.16;1692642;83;25801;-78
2022/02/10 20:22:38;;;;;;;20.02;12.60;;;;;;;8.46;85.99;100439.37;1666958;84;26446;-79
2022/02/10 20:25:04;;;;;;;19.07;12.40;;;;;;;8.43;86.10;100437.04;1666067;84;28355;-78
2022/02/10 20:27:31;;;;;;;19.70;13.00;;;;;;;8.39;86.29;100438.90;1663602;83;26509;-78
2022/02/10 20:29:57;;;;;;;19.15;12.33;;;;;;;8.34;86.42;100447.95;1680524;83;26487;-78
2022/02/10 20:32:24;;;;;;;17.57;11.15;;;;;;;8.30;86.67;100445.28;1672534;83;26469;-77
2022/02/10 20:34:50;;;;;;;20.50;12.65;;;;;;;8.30;86.82;100459.47;1680466;83;26446;-78
2022/02/10 20:37:16;;;;;;;23.47;12.85;;;;;;;8.29;86.96;100460.98;1682024;83;28464;-78
2022/02/10 20:39:43;;;;;;;19.20;12.63;;;;;;;8.25;87.14;100460.52;1673029;83;25981;-77
2022/02/10 20:42:15;;;;;;;21.93;13.70;;;;;;;8.23;87.45;100456.32;1672871;83;25787;-77
2022/02/10 20:44:42;;;;;;;19.37;12.75;;;;;;;8.19;87.50;100467.02;1672559;83;25861;-78
2022/02/10 20:47:06;;;;;;;19.57;13.80;;;;;;;8.15;87.71;100473.19;1673154;82;26550;-78
2022/02/10 20:49:32;;;;;;;19.20;12.70;;;;;;;8.13;87.96;100474.36;1684167;84;27516;-78
2022/02/10 20:51:58;;;;;;;21.27;12.80;;;;;;;8.12;88.07;100473.55;1679903;84;26070;-77
2022/02/10 20:54:26;;;;;;;20.70;12.37;;;;;;;8.10;88.26;100474.73;1685004;84;25912;-77
2022/02/10 20:56:52;;;;;;;22.85;13.53;;;;;;;8.08;88.47;100478.91;1677852;83;26516;-78
2022/02/10 20:59:30;;;;;;;21.25;12.70;;;;;;;8.09;88.65;100484.56;1677275;84;25860;-78
2022/02/10 21:02:06;;;;;;;19.50;11.85;;;;;;;8.05;88.97;100491.25;1680577;84;27477;-78
2022/02/10 21:04:18;;;;;;;21.25;12.30;;;;;;;8.02;89.48;100495.58;1673330;84;27046;-77
2022/02/10 21:07:02;;;;;;;18.85;11.80;;;;;;;8.02;89.43;100494.77;1671472;84;25813;-78
2022/02/10 21:09:35;;;;;;;25.50;13.78;;;;;;;8.00;89.50;100500.26;1672919;84;26215;-77
2022/02/10 21:11:54;;;;;;;22.30;14.05;;;;;;;7.98;89.88;100494.77;1676711;84;25839;-77
2022/02/10 21:14:19;;;;;;;20.88;13.32;;;;;;;7.96;89.90;100500.28;1669439;85;27636;-78
2022/02/10 21:16:45;;;;;;;25.23;14.53;;;;;;;7.96;90.13;100508.28;1670173;85;25872;-78
2022/02/10 21:19:13;;;;;;;20.48;13.80;;;;;;;7.94;90.13;100509.45;1669906;85;25775;-77
2022/02/10 21:21:41;;;;;;;25.80;15.20;;;;;;;7.93;90.40;100507.80;1670415;85;25846;-77
2022/02/10 21:24:12;;;;;;;28.40;15.53;;;;;;;7.91;90.43;100510.66;1670212;85;25800;-78
2022/02/10 21:26:46;;;;;;;22.27;15.48;;;;;;;7.91;90.65;100509.31;1674411;84;27541;-77
2022/02/10 21:29:05;;;;;;;22.85;15.35;;;;;;;7.88;91.01;100511.47;1694595;82;25931;-78
2022/02/10 21:31:32;;;;;;;24.85;15.93;;;;;;;7.83;91.53;100507.17;1699842;84;26326;-78
2022/02/10 21:34:13;;;;;;;24.50;16.48;;;;;;;7.81;91.89;100520.66;1699965;84;25794;-78
2022/02/10 21:39:21;;;;;;;23.15;15.58;;;;;;;7.64;92.93;100521.70;1699574;84;28245;-78
2022/02/10 21:58:19;;;;;;;;;;;;;;;6.87;91.04;100547.03;1662864;84;26601;-77
2022/02/10 22:01:05;;;;;;;8.93;6.17;;;;;;;6.81;91.16;100553.02;1643369;87;25914;-77
2022/02/10 22:11:32;;;;;;;7.10;5.62;;;;;;;6.55;90.56;100562.92;1639121;86;25851;-78
2022/02/10 22:16:47;;;;;;;7.83;4.92;;;;;;;6.44;89.60;100573.02;1639479;86;25804;-78
2022/02/10 22:19:09;;;;;;;5.87;4.55;;;;;;;6.34;89.53;100577.64;1635973;87;27563;-77
2022/02/10 22:21:43;;;;;;;5.42;3.87;;;;;;;6.23;89.39;100578.27;1639726;87;26598;-77
2022/02/10 22:24:07;;;;;;;6.35;4.28;;;;;;;6.18;89.65;100569.92;1637226;86;26087;-78
2022/02/10 22:26:32;;;;;;;6.50;4.40;;;;;;;6.15;89.80;100572.92;1664805;84;25785;-77
2022/02/10 22:32:45;;;;;;;5.50;4.30;;;;;;;6.15;89.85;100578.24;1664526;85;28482;-77
2022/02/10 22:34:35;;;;;;;7.05;4.50;;;;;;;6.11;89.92;100576.90;1617564;86;26859;-77
2022/02/10 22:37:00;;;;;;;6.37;4.08;;;;;;;6.09;89.82;100585.50;1641956;85;25833;-78
2022/02/10 22:39:33;;;;;;;6.60;4.22;;;;;;;6.08;89.92;100593.16;1663602;84;25909;-77
2022/02/10 22:41:58;;;;;;;6.22;4.58;;;;;;;6.09;89.94;100595.33;1660883;85;26014;-78
2022/02/10 22:44:24;;;;;;;7.65;4.28;;;;;;;6.06;89.88;100594.30;1644817;84;27470;-78
2022/02/10 22:46:51;;;;;;;6.90;4.33;;;;;;;6.05;89.80;100602.77;1617222;85;26007;-77
2022/02/10 22:49:17;;;;;;;7.90;4.10;;;;;;;6.03;89.80;100604.75;1630638;87;25812;-77
2022/02/10 22:51:43;;;;;;;7.87;4.42;;;;;;;6.01;89.81;100604.56;1631169;87;26275;-78
2022/02/10 22:54:10;;;;;;;9.65;4.53;;;;;;;5.98;89.84;100612.88;1630677;87;25773;-77
2022/02/10 22:56:36;;;;;;;7.28;4.50;;;;;;;5.96;89.88;100616.19;1630856;87;28281;-77
2022/02/10 22:59:07;;;;;;;5.90;4.50;;;;;;;6.00;90.03;100625.02;1627278;88;26029;-78
2022/02/10 23:01:35;;;;;;;8.38;5.08;;;;;;;5.97;89.92;100625.33;1629854;87;26085;-78
2022/02/10 23:04:03;;;;;;;6.87;4.92;;;;;;;5.93;90.01;100629.28;1630603;87;26269;-77
2022/02/10 23:06:29;;;;;;;9.10;5.10;;;;;;;5.91;90.16;100633.09;1631420;87;25829;-78
2022/02/10 23:08:56;;;;;;;11.90;5.03;;;;;;;5.91;90.27;100629.94;1631031;87;28456;-78
2022/02/10 23:11:29;;;;;;;7.95;5.10;;;;;;;5.90;90.29;100644.73;1631312;87;26037;-78
2022/02/10 23:13:53;;;;;;;9.30;5.70;;;;;;;5.87;90.35;100644.54;1630359;87;25829;-77
2022/02/10 23:16:19;;;;;;;5.87;4.67;;;;;;;5.87;90.49;100655.66;1631540;87;26290;-78
2022/02/10 23:18:46;;;;;;;9.20;5.12;;;;;;;5.85;90.63;100660.30;1631614;87;26008;-77
2022/02/10 23:21:15;;;;;;;7.22;4.50;;;;;;;5.84;90.79;100669.24;1627514;87;28379;-77
2022/02/10 23:23:46;;;;;;;6.37;4.42;;;;;;;5.80;90.76;100671.84;1629596;87;25907;-76
2022/02/10 23:26:17;;;;;;;4.47;3.80;;;;;;;5.77;90.66;100675.67;1613937;87;25888;-77
2022/02/10 23:28:49;;;;;;;9.98;4.08;;;;;;;5.74;90.47;100671.98;1603922;87;25932;-78
2022/02/10 23:31:18;;;;;;;4.85;3.75;;;;;;;5.70;90.15;100683.06;1616101;87;25746;-77
2022/02/10 23:33:50;;;;;;;6.92;4.08;;;;;;;5.65;89.92;100687.99;1625063;88;27517;-78
2022/02/10 23:39:07;;;;;;;6.97;4.28;;;;;;;5.59;89.96;100689.94;1630746;86;25988;-78
2022/02/10 23:41:51;;;;;;;6.72;5.05;;;;;;;5.59;90.05;100696.09;1617517;87;25737;-77
2022/02/10 23:44:12;;;;;;;5.53;4.25;;;;;;;5.56;90.15;100691.59;1619196;86;25818;-77
2022/02/10 23:46:33;;;;;;;4.72;3.85;;;;;;;5.57;90.15;100689.26;1615736;83;28132;-77
2022/02/10 23:48:59;;;;;;;9.10;4.45;;;;;;;5.58;89.95;100692.27;1620411;87;25808;-77
2022/02/10 23:51:30;;;;;;;7.05;4.17;;;;;;;5.60;90.06;100694.28;1622147;87;25838;-78
2022/02/10 23:53:53;;;;;;;4.92;3.85;;;;;;;5.62;89.91;100703.77;1628927;86;26269;-77
2022/02/10 23:56:24;;;;;;;6.75;4.15;;;;;;;5.61;89.73;100700.77;1637670;87;25926;-78
2022/02/10 23:58:57;;;;;;;5.08;3.35;;;;;;;5.63;89.68;100704.10;1634677;87;28407;-77
